createdAt,value
2019-03-12T00:00:29.447Z,14.47
2019-03-12T00:02:57.896Z,14.10
2019-03-12T00:05:26.376Z,13.23
2019-03-12T00:07:54.808Z,14.73
2019-03-12T00:10:23.254Z,14.93
2019-03-12T00:12:51.716Z,13.30
2019-03-12T00:15:20.305Z,16.03
2019-03-12T00:17:48.741Z,13.33
2019-03-12T00:20:17.201Z,13.90
2019-03-12T00:22:45.637Z,14.37
2019-03-12T00:25:14.087Z,15.17
2019-03-12T00:27:42.528Z,13.47
2019-03-12T00:30:11.246Z,14.13
2019-03-12T00:32:39.685Z,16.20
2019-03-12T00:35:08.542Z,15.33
2019-03-12T00:37:37.108Z,11.73
2019-03-12T00:40:07.290Z,14.27
2019-03-12T00:42:35.747Z,12.03
2019-03-12T00:45:06.031Z,16.33
2019-03-12T00:47:34.469Z,15.43
2019-03-12T00:50:02.982Z,13.03
2019-03-12T00:52:31.436Z,12.77
2019-03-12T00:54:59.889Z,14.23
2019-03-12T00:57:28.335Z,14.83
2019-03-12T00:59:56.780Z,14.60
2019-03-12T01:02:25.238Z,14.30
2019-03-12T01:04:53.674Z,15.20
2019-03-12T01:07:22.144Z,13.80
2019-03-12T01:09:50.582Z,13.93
2019-03-12T01:12:19.058Z,17.03
2019-03-12T01:14:47.502Z,16.17
2019-03-12T01:17:15.950Z,14.20
2019-03-12T01:19:44.407Z,16.27
2019-03-12T01:22:12.925Z,15.73
2019-03-12T01:24:41.357Z,13.33
2019-03-12T01:27:09.836Z,15.73
2019-03-12T01:29:38.275Z,16.23
2019-03-12T01:32:06.729Z,18.17
2019-03-12T01:34:35.174Z,18.43
2019-03-12T01:37:03.639Z,17.90
2019-03-12T01:39:32.075Z,18.97
2019-03-12T01:42:00.534Z,18.17
2019-03-12T01:44:28.974Z,17.27
2019-03-12T01:46:57.426Z,17.70
2019-03-12T01:49:25.866Z,17.87
2019-03-12T01:51:54.329Z,18.93
2019-03-12T01:54:22.771Z,16.73
2019-03-12T01:56:51.220Z,18.07
2019-03-12T01:59:19.663Z,18.57
2019-03-12T02:01:48.132Z,18.93
2019-03-12T02:04:16.585Z,19.77
2019-03-12T02:06:45.048Z,17.37
2019-03-12T02:09:13.764Z,18.10
2019-03-12T02:11:42.228Z,20.87
2019-03-12T02:14:26.854Z,20.13
2019-03-12T02:16:55.386Z,23.60
2019-03-12T02:19:23.817Z,19.03
2019-03-12T02:21:52.276Z,20.40
2019-03-12T02:24:20.795Z,19.50
2019-03-12T02:26:49.245Z,22.47
2019-03-12T02:29:17.691Z,22.83
2019-03-12T02:31:46.135Z,18.77
2019-03-12T02:34:14.590Z,22.53
2019-03-12T02:36:43.041Z,22.33
2019-03-12T02:39:11.481Z,19.87
2019-03-12T02:41:39.940Z,27.17
2019-03-12T02:44:08.379Z,23.00
2019-03-12T02:46:36.869Z,23.73
2019-03-12T02:49:09.200Z,24.17
2019-03-12T02:51:35.454Z,24.63
2019-03-12T02:54:04.030Z,25.63
2019-03-12T02:56:32.502Z,27.43
2019-03-12T02:59:00.962Z,27.90
2019-03-12T03:01:29.392Z,26.27
2019-03-12T03:03:57.853Z,24.17
2019-03-12T03:06:33.669Z,26.17
2019-03-12T03:09:02.204Z,23.07
2019-03-12T03:11:30.645Z,25.97
2019-03-12T03:13:59.099Z,24.03
2019-03-12T03:16:27.546Z,23.80
2019-03-12T03:18:56.071Z,25.20
2019-03-12T03:21:24.513Z,29.83
2019-03-12T03:23:52.974Z,27.60
2019-03-12T03:26:21.412Z,23.10
2019-03-12T03:28:49.865Z,24.80
2019-03-12T03:31:18.310Z,25.27
2019-03-12T03:33:46.843Z,25.13
2019-03-12T03:36:15.347Z,27.47
2019-03-12T03:38:43.816Z,26.13
2019-03-12T03:41:12.260Z,24.87
2019-03-12T03:43:40.723Z,24.40
2019-03-12T03:46:09.157Z,27.07
2019-03-12T03:48:37.620Z,25.07
2019-03-12T03:51:06.067Z,22.87
2019-03-12T03:53:34.531Z,26.43
2019-03-12T03:56:03.007Z,26.23
2019-03-12T03:58:31.538Z,26.03
2019-03-12T04:01:00.055Z,24.43
2019-03-12T04:03:28.583Z,24.73
2019-03-12T04:05:57.096Z,21.60
2019-03-12T04:08:25.644Z,22.57
2019-03-12T04:10:54.136Z,18.90
2019-03-12T04:13:22.605Z,20.37
2019-03-12T04:15:51.485Z,18.63
2019-03-12T04:18:19.972Z,23.00
2019-03-12T04:20:48.480Z,20.87
2019-03-12T04:23:16.960Z,24.97
2019-03-12T04:25:45.470Z,18.20
2019-03-12T04:28:13.943Z,19.57
2019-03-12T04:30:42.402Z,19.97
2019-03-12T04:33:13.947Z,20.07
2019-03-12T04:35:42.378Z,22.77
2019-03-12T04:38:10.853Z,19.97
2019-03-12T04:40:39.298Z,18.90
2019-03-12T04:43:07.733Z,20.80
2019-03-12T04:45:36.266Z,22.63
2019-03-12T04:48:04.706Z,18.10
2019-03-12T04:50:33.167Z,18.23
2019-03-12T04:53:01.606Z,20.67
2019-03-12T04:55:30.082Z,19.20
2019-03-12T04:57:58.525Z,17.10
2019-03-12T05:00:26.975Z,14.53
2019-03-12T05:02:55.408Z,16.50
2019-03-12T05:05:23.871Z,15.10
2019-03-12T05:07:52.327Z,20.13
2019-03-12T05:10:20.782Z,13.90
2019-03-12T05:12:49.218Z,19.07
2019-03-12T05:15:18.630Z,16.43
2019-03-12T05:17:47.132Z,15.17
2019-03-12T05:20:16.025Z,15.97
2019-03-12T05:22:44.530Z,15.60
2019-03-12T05:25:14.133Z,14.27
2019-03-12T05:27:43.011Z,14.60
2019-03-12T05:30:20.435Z,12.83
2019-03-12T05:32:48.867Z,15.20
2019-03-12T05:35:17.346Z,15.37
2019-03-12T05:37:45.855Z,15.43
2019-03-12T05:40:15.351Z,15.03
2019-03-12T05:42:43.778Z,14.67
2019-03-12T05:45:15.916Z,14.90
2019-03-12T05:47:44.450Z,15.20
2019-03-12T05:50:19.630Z,16.27
2019-03-12T05:52:49.331Z,19.20
2019-03-12T05:55:18.123Z,10.93
2019-03-12T05:57:46.549Z,12.70
2019-03-12T06:00:19.462Z,11.40
2019-03-12T06:02:47.895Z,12.07
2019-03-12T06:05:16.351Z,12.37
2019-03-12T06:07:44.794Z,11.07
2019-03-12T06:10:14.471Z,10.43
2019-03-12T06:12:42.927Z,13.73
2019-03-12T06:15:13.005Z,8.63
2019-03-12T06:17:41.446Z,17.57
2019-03-12T06:20:12.153Z,10.53
2019-03-12T06:22:40.653Z,9.70
2019-03-12T06:25:09.232Z,11.43
2019-03-12T06:27:37.679Z,10.17
2019-03-12T06:30:09.188Z,7.77
2019-03-12T06:32:48.222Z,11.80
2019-03-12T06:35:18.315Z,8.87
2019-03-12T06:38:04.623Z,9.30
2019-03-12T06:40:49.779Z,7.63
2019-03-12T06:43:31.539Z,11.17
2019-03-12T06:46:01.692Z,10.27
2019-03-12T06:48:37.509Z,10.43
2019-03-12T06:51:07.599Z,11.13
2019-03-12T06:53:55.462Z,11.50
2019-03-12T06:56:31.199Z,12.17
2019-03-12T06:59:04.203Z,9.53
2019-03-12T07:01:50.332Z,11.53
2019-03-12T07:04:35.613Z,12.23
2019-03-12T07:07:06.832Z,11.83
2019-03-12T07:09:37.627Z,14.47
2019-03-12T07:12:23.721Z,16.53
2019-03-12T07:14:53.814Z,12.00
2019-03-12T07:17:23.904Z,15.23
2019-03-12T07:20:13.199Z,11.57
2019-03-12T07:22:58.411Z,14.67
2019-03-12T07:25:31.551Z,13.67
2019-03-12T07:28:07.438Z,14.27
2019-03-12T07:30:37.523Z,14.43
2019-03-12T07:33:10.576Z,13.20
2019-03-12T07:35:58.719Z,17.10
2019-03-12T07:38:40.582Z,14.80
2019-03-12T07:41:24.508Z,19.07
2019-03-12T07:43:54.262Z,13.43
2019-03-12T07:46:27.304Z,16.50
2019-03-12T07:48:57.465Z,14.90
2019-03-12T07:51:27.531Z,13.87
2019-03-12T07:54:12.467Z,12.20
2019-03-12T07:56:48.203Z,13.83
2019-03-12T07:59:18.302Z,12.67
2019-03-12T08:01:51.085Z,13.27
2019-03-12T08:04:27.102Z,11.07
2019-03-12T08:06:59.595Z,10.90
2019-03-12T08:09:38.447Z,15.23
2019-03-12T08:12:08.551Z,13.17
2019-03-12T08:14:41.563Z,16.47
2019-03-12T08:17:11.659Z,12.73
2019-03-12T08:19:41.746Z,16.90
2019-03-12T08:22:11.834Z,15.47
2019-03-12T08:24:41.923Z,17.03
2019-03-12T08:27:12.005Z,20.17
2019-03-12T08:29:47.779Z,15.87
2019-03-12T08:32:32.998Z,15.53
2019-03-12T08:35:03.071Z,12.87
2019-03-12T08:37:49.204Z,19.43
2019-03-12T08:40:25.267Z,15.07
2019-03-12T08:43:03.994Z,16.37
2019-03-12T08:45:34.079Z,13.60
2019-03-12T08:48:06.840Z,15.43
2019-03-12T08:50:42.723Z,15.87
2019-03-12T08:53:24.611Z,16.20
2019-03-12T08:55:57.389Z,15.00
2019-03-12T08:58:36.240Z,13.77
2019-03-12T09:01:12.224Z,18.37
2019-03-12T09:03:45.215Z,15.27
2019-03-12T09:06:18.373Z,12.40
2019-03-12T09:08:51.227Z,12.63
2019-03-12T09:11:39.367Z,16.07
2019-03-12T09:14:18.388Z,12.80
2019-03-12T09:17:03.623Z,12.73
2019-03-12T09:19:33.757Z,14.17
2019-03-12T09:22:20.080Z,10.90
2019-03-12T09:24:59.112Z,11.67
2019-03-12T09:27:45.170Z,13.40
2019-03-12T09:30:15.257Z,11.47
2019-03-12T09:32:51.168Z,9.03
2019-03-12T09:35:21.273Z,10.57
2019-03-12T09:38:03.459Z,7.80
2019-03-12T09:40:49.834Z,9.77
2019-03-12T09:43:31.965Z,10.47
2019-03-12T09:46:18.108Z,8.60
2019-03-12T09:49:04.503Z,8.13
2019-03-12T09:51:34.623Z,7.93
2019-03-12T09:54:13.695Z,7.47
2019-03-12T09:56:49.595Z,8.70
2019-03-12T09:59:19.732Z,7.13
2019-03-12T10:01:55.746Z,9.93
2019-03-12T10:04:40.862Z,6.30
2019-03-12T10:07:16.747Z,7.90
2019-03-12T10:09:52.888Z,7.33
2019-03-12T10:12:22.953Z,9.47
2019-03-12T10:15:05.146Z,5.97
2019-03-12T10:17:47.171Z,7.77
2019-03-12T10:20:26.292Z,7.83
2019-03-12T10:22:56.364Z,9.83
2019-03-12T10:25:42.712Z,5.07
2019-03-12T10:28:12.854Z,8.73
2019-03-12T10:30:54.757Z,8.70
2019-03-12T10:33:36.448Z,8.57
2019-03-12T10:36:09.333Z,6.00
2019-03-12T10:38:58.922Z,7.33
2019-03-12T10:41:31.683Z,6.93
2019-03-12T10:44:01.755Z,7.80
2019-03-12T10:46:31.850Z,4.93
2019-03-12T10:49:00.282Z,7.10
2019-03-12T10:51:28.803Z,8.10
2019-03-12T10:53:57.238Z,4.47
2019-03-12T10:56:25.689Z,4.80
2019-03-12T10:58:54.121Z,4.13
2019-03-12T11:01:22.578Z,10.37
2019-03-12T11:03:51.049Z,5.80
2019-03-12T11:06:19.544Z,4.77
2019-03-12T11:08:47.999Z,4.83
2019-03-12T11:11:16.515Z,6.40
2019-03-12T11:13:45.023Z,3.67
2019-03-12T11:16:13.471Z,5.37
2019-03-12T11:18:41.903Z,4.30
2019-03-12T11:21:10.368Z,6.83
2019-03-12T11:23:38.795Z,7.93
2019-03-12T11:26:07.263Z,3.97
2019-03-12T11:28:35.694Z,4.70
2019-03-12T11:31:04.147Z,5.60
2019-03-12T11:33:32.574Z,3.90
2019-03-12T11:36:01.108Z,6.33
2019-03-12T11:38:29.662Z,5.33
2019-03-12T11:40:58.185Z,7.67
2019-03-12T11:43:26.682Z,5.67
2019-03-12T11:45:55.193Z,2.83
2019-03-12T11:48:23.639Z,5.77
2019-03-12T11:50:52.080Z,4.87
2019-03-12T11:53:20.534Z,7.90
2019-03-12T11:55:48.963Z,3.33
2019-03-12T11:58:17.520Z,3.13
2019-03-12T12:00:50.385Z,3.83
2019-03-12T12:03:18.877Z,2.90
2019-03-12T12:05:47.307Z,6.30
2019-03-12T12:08:15.781Z,5.03
2019-03-12T12:10:44.271Z,3.13
2019-03-12T12:13:12.725Z,2.37
2019-03-12T12:15:41.162Z,4.47
2019-03-12T12:18:09.609Z,5.43
2019-03-12T12:20:38.047Z,3.33
2019-03-12T12:23:06.507Z,5.67
2019-03-12T12:25:34.974Z,3.33
2019-03-12T12:28:03.419Z,4.93
2019-03-12T12:30:31.846Z,4.40
2019-03-12T12:33:00.298Z,3.83
2019-03-12T12:35:28.735Z,6.10
2019-03-12T12:37:57.270Z,3.70
2019-03-12T12:40:25.703Z,4.90
2019-03-12T12:42:54.167Z,3.47
2019-03-12T12:45:29.946Z,3.57
2019-03-12T12:47:58.418Z,4.50
2019-03-12T12:50:26.855Z,3.40
2019-03-12T12:52:55.296Z,4.83
2019-03-12T12:55:23.796Z,4.77
2019-03-12T12:57:52.268Z,4.77
2019-03-12T13:00:23.063Z,4.77
2019-03-12T13:02:51.700Z,4.23
2019-03-12T13:05:20.128Z,2.33
2019-03-12T13:07:48.643Z,4.17
2019-03-12T13:10:25.934Z,4.27
2019-03-12T13:12:54.511Z,5.63
2019-03-12T13:15:23.136Z,4.73
2019-03-12T13:17:51.606Z,3.73
2019-03-12T13:20:20.107Z,3.63
2019-03-12T13:22:48.578Z,5.90
2019-03-12T13:25:18.116Z,6.37
2019-03-12T13:27:46.833Z,6.97
2019-03-12T13:30:20.648Z,4.33
2019-03-12T13:32:49.111Z,4.70
2019-03-12T13:35:18.624Z,4.67
2019-03-12T13:37:47.719Z,2.90
2019-03-12T13:40:20.866Z,6.37
2019-03-12T13:42:49.468Z,3.00
2019-03-12T13:45:22.991Z,6.40
2019-03-12T13:47:51.534Z,3.90
2019-03-12T13:50:20.095Z,6.17
2019-03-12T13:52:48.657Z,2.87
2019-03-12T13:55:17.219Z,3.73
2019-03-12T13:57:45.863Z,3.33
2019-03-12T14:00:22.089Z,2.60
2019-03-12T14:02:50.834Z,3.93
2019-03-12T14:05:19.405Z,6.13
2019-03-12T14:07:47.948Z,5.93
2019-03-12T14:10:28.390Z,3.17
2019-03-12T14:12:57.480Z,3.47
2019-03-12T14:15:33.050Z,4.47
2019-03-12T14:18:01.679Z,4.37
2019-03-12T14:20:46.785Z,3.90
2019-03-12T14:23:26.910Z,5.17
2019-03-12T14:25:55.427Z,7.03
2019-03-12T14:28:23.951Z,4.50
2019-03-12T14:30:52.389Z,6.70
2019-03-12T14:33:20.854Z,4.07
2019-03-12T14:35:51.894Z,6.37
2019-03-12T14:38:19.775Z,5.20
2019-03-12T14:40:48.350Z,5.03
2019-03-12T14:43:16.869Z,6.33
2019-03-12T14:45:50.503Z,8.60
2019-03-12T14:48:37.385Z,5.53
2019-03-12T14:51:14.607Z,5.77
2019-03-12T14:53:45.200Z,8.70
2019-03-12T14:56:13.650Z,10.40
2019-03-12T14:58:42.106Z,5.77
2019-03-12T15:01:10.553Z,7.90
2019-03-12T15:03:39.076Z,6.70
2019-03-12T15:06:07.505Z,7.43
2019-03-12T15:08:35.957Z,6.73
2019-03-12T15:11:04.458Z,5.80
2019-03-12T15:13:32.918Z,9.40
2019-03-12T15:16:01.439Z,15.10
2019-03-12T15:18:29.894Z,6.77
2019-03-12T15:20:58.326Z,9.13
2019-03-12T15:23:26.781Z,10.47
2019-03-12T15:25:55.206Z,6.60
2019-03-12T15:28:23.663Z,10.37
2019-03-12T15:30:52.099Z,6.03
2019-03-12T15:33:20.569Z,8.60
2019-03-12T15:35:49.001Z,8.87
2019-03-12T15:38:17.450Z,9.40
2019-03-12T15:40:45.884Z,7.53
2019-03-12T15:43:14.427Z,7.23
2019-03-12T15:45:42.863Z,9.63
2019-03-12T15:48:11.305Z,4.43
2019-03-12T15:50:39.746Z,7.27
2019-03-12T15:53:08.212Z,7.97
2019-03-12T15:55:36.710Z,7.83
2019-03-12T15:58:05.244Z,7.73
2019-03-12T16:00:33.675Z,6.07
2019-03-12T16:03:02.138Z,7.83
2019-03-12T16:05:30.585Z,8.53
2019-03-12T16:07:59.093Z,9.53
2019-03-12T16:10:27.622Z,6.80
2019-03-12T16:12:56.057Z,8.97
2019-03-12T16:15:24.514Z,5.83
2019-03-12T16:17:52.944Z,7.60
2019-03-12T16:20:24.191Z,6.87
2019-03-12T16:22:52.616Z,6.47
2019-03-12T16:25:21.085Z,8.27
2019-03-12T16:27:49.605Z,6.00
2019-03-12T16:30:20.175Z,10.03
2019-03-12T16:32:48.791Z,7.80
2019-03-12T16:35:17.378Z,8.10
2019-03-12T16:37:45.895Z,6.53
2019-03-12T16:40:17.432Z,6.30
2019-03-12T16:42:45.870Z,9.00
2019-03-12T16:45:18.862Z,9.90
2019-03-12T16:47:47.373Z,6.23
2019-03-12T16:50:19.372Z,4.77
2019-03-12T16:52:47.837Z,6.17
2019-03-12T16:55:19.796Z,7.90
2019-03-12T16:57:48.235Z,5.97
2019-03-12T17:00:18.255Z,6.93
2019-03-12T17:02:46.879Z,6.37
2019-03-12T17:05:15.769Z,9.87
2019-03-12T17:07:44.371Z,5.87
2019-03-12T17:10:14.580Z,6.07
2019-03-12T17:12:43.054Z,7.73
2019-03-12T17:15:14.583Z,5.40
2019-03-12T17:17:43.018Z,7.73
2019-03-12T17:20:13.510Z,6.67
2019-03-12T17:22:41.951Z,7.27
2019-03-12T17:25:11.650Z,7.70
2019-03-12T17:27:40.128Z,4.57
2019-03-12T17:30:11.948Z,6.30
2019-03-12T17:32:40.381Z,7.80
2019-03-12T17:35:11.875Z,6.63
2019-03-12T17:37:40.311Z,6.63
2019-03-12T17:40:14.361Z,5.57
2019-03-12T17:42:42.792Z,5.43
2019-03-12T17:45:11.896Z,6.90
2019-03-12T17:47:40.391Z,5.13
2019-03-12T17:50:11.647Z,6.43
2019-03-12T17:52:40.104Z,6.00
2019-03-12T17:55:13.373Z,6.97
2019-03-12T17:57:42.047Z,3.17
2019-03-12T18:00:18.957Z,7.00
2019-03-12T18:02:47.403Z,4.73
2019-03-12T18:05:15.843Z,5.27
2019-03-12T18:07:44.455Z,6.20
2019-03-12T18:10:17.385Z,8.87
2019-03-12T18:12:45.826Z,6.73
2019-03-12T18:15:19.809Z,7.93
2019-03-12T18:17:48.539Z,7.33
2019-03-12T18:20:18.234Z,3.87
2019-03-12T18:22:46.668Z,4.87
2019-03-12T18:25:23.878Z,5.67
2019-03-12T18:27:52.353Z,4.07
2019-03-12T18:30:20.947Z,7.57
2019-03-12T18:32:49.589Z,7.57
2019-03-12T18:35:18.174Z,6.87
2019-03-12T18:37:46.666Z,7.70
2019-03-12T18:40:18.292Z,6.23
2019-03-12T18:42:46.782Z,5.83
2019-03-12T18:45:17.983Z,4.63
2019-03-12T18:47:46.543Z,6.77
2019-03-12T18:50:16.608Z,7.30
2019-03-12T18:52:45.087Z,7.00
2019-03-12T18:55:31.376Z,6.73
2019-03-12T18:58:00.003Z,7.63
2019-03-12T19:00:28.494Z,8.53
2019-03-12T19:02:56.946Z,5.17
2019-03-12T19:05:28.003Z,5.93
2019-03-12T19:07:55.695Z,6.87
2019-03-12T19:10:24.288Z,6.97
2019-03-12T19:12:52.795Z,5.53
2019-03-12T19:15:21.322Z,6.60
2019-03-12T19:17:49.744Z,5.60
2019-03-12T19:20:18.842Z,5.00
2019-03-12T19:22:47.278Z,5.33
2019-03-12T19:25:17.275Z,6.80
2019-03-12T19:27:58.833Z,6.77
2019-03-12T19:30:17.396Z,6.03
2019-03-12T19:32:47.530Z,6.67
2019-03-12T19:35:18.787Z,6.13
2019-03-12T19:37:47.215Z,7.37
2019-03-12T19:40:18.748Z,5.40
2019-03-12T19:42:47.347Z,7.00
2019-03-12T19:45:15.801Z,5.00
2019-03-12T19:47:44.238Z,6.10
2019-03-12T19:50:15.852Z,6.60
2019-03-12T19:52:44.359Z,6.80
2019-03-12T19:55:27.804Z,4.00
2019-03-12T19:57:56.252Z,7.27
2019-03-12T20:00:26.341Z,4.43
2019-03-12T20:02:55.451Z,6.07
2019-03-12T20:05:23.893Z,6.17
2019-03-12T20:07:52.336Z,7.53
2019-03-12T20:10:32.783Z,5.07
2019-03-12T20:13:36.936Z,7.27
2019-03-12T20:16:42.710Z,5.50
2019-03-12T20:19:47.218Z,6.97
2019-03-12T20:22:51.613Z,4.90
2019-03-12T20:25:44.025Z,6.00
2019-03-12T20:28:31.714Z,5.70
2019-03-12T20:31:34.553Z,5.77
2019-03-12T20:34:39.060Z,6.10
2019-03-12T20:37:35.662Z,5.27
2019-03-12T20:40:39.938Z,5.73
2019-03-12T20:43:38.433Z,5.60
2019-03-12T20:46:15.636Z,6.40
2019-03-12T20:49:20.181Z,5.07
2019-03-12T20:52:13.798Z,6.67
2019-03-12T20:55:07.085Z,5.50
2019-03-12T20:57:55.131Z,6.70
2019-03-12T21:00:56.452Z,3.50
2019-03-12T21:03:42.682Z,4.60
2019-03-12T21:06:32.071Z,5.67
2019-03-12T21:09:19.785Z,5.00
2019-03-12T21:12:00.077Z,4.07
2019-03-12T21:14:34.442Z,5.30
2019-03-12T21:17:06.030Z,4.33
2019-03-12T21:20:08.453Z,3.23
2019-03-12T21:22:53.906Z,5.83
2019-03-12T21:25:40.223Z,2.70
2019-03-12T21:28:17.784Z,4.83
2019-03-12T21:30:46.289Z,4.60
2019-03-12T21:33:15.701Z,6.00
2019-03-12T21:35:44.361Z,5.30
2019-03-12T21:38:12.814Z,5.33
2019-03-12T21:40:41.246Z,5.13
2019-03-12T21:43:09.690Z,7.40
2019-03-12T21:45:38.125Z,5.73
2019-03-12T21:48:06.572Z,6.53
2019-03-12T21:50:35.023Z,5.93
2019-03-12T21:53:03.617Z,5.80
2019-03-12T21:55:32.048Z,6.33
2019-03-12T21:58:00.515Z,4.57
2019-03-12T22:00:28.952Z,3.90
2019-03-12T22:02:57.409Z,3.90
2019-03-12T22:05:25.841Z,6.50
2019-03-12T22:07:54.295Z,4.60
2019-03-12T22:10:22.727Z,4.07
2019-03-12T22:12:51.173Z,4.40
2019-03-12T22:15:19.628Z,4.33
2019-03-12T22:17:48.115Z,5.60
2019-03-12T22:20:16.639Z,3.57
2019-03-12T22:22:49.385Z,4.47
2019-03-12T22:25:17.843Z,5.30
2019-03-12T22:27:46.278Z,6.60
2019-03-12T22:30:20.220Z,5.07
2019-03-12T22:32:48.659Z,4.40
2019-03-12T22:35:17.178Z,3.53
2019-03-12T22:37:45.678Z,4.20
2019-03-12T22:40:14.970Z,6.00
2019-03-12T22:42:43.410Z,5.27
2019-03-12T22:45:12.187Z,3.47
2019-03-12T22:47:40.633Z,4.10
2019-03-12T22:50:14.834Z,4.27
2019-03-12T22:52:43.275Z,5.00
2019-03-12T22:55:13.745Z,5.47
2019-03-12T22:57:42.165Z,3.27
2019-03-12T23:00:17.481Z,4.43
2019-03-12T23:02:46.000Z,5.03
2019-03-12T23:05:14.780Z,2.60
2019-03-12T23:07:43.278Z,3.97
2019-03-12T23:10:14.630Z,4.23
2019-03-12T23:12:43.426Z,2.73
2019-03-12T23:15:17.192Z,6.70
2019-03-12T23:17:45.683Z,2.73
2019-03-12T23:20:21.352Z,5.10
2019-03-12T23:22:52.176Z,4.23
2019-03-12T23:25:19.963Z,2.20
2019-03-12T23:27:48.386Z,2.93
2019-03-12T23:30:21.013Z,4.27
2019-03-12T23:32:49.458Z,4.73
2019-03-12T23:35:18.000Z,4.23
2019-03-12T23:37:46.506Z,3.63
2019-03-12T23:40:16.419Z,3.60
2019-03-12T23:42:44.850Z,2.43
2019-03-12T23:45:15.151Z,3.93
2019-03-12T23:47:43.721Z,4.00
2019-03-12T23:50:14.178Z,3.67
2019-03-12T23:52:42.746Z,4.40
2019-03-12T23:55:12.476Z,2.50
2019-03-12T23:57:40.911Z,5.03
